IGO421 VAAH-VABB
Flight info
| Callsign | IGO421 |
|---|---|
| Flight time | 0h 46m |
| Altitude | 35000 |
| Route | BVR1A BVR R458 BOFIN POKON2A |
| Aircraft | A20N/M-SDE2E3FGHIRWXY/LB1 |
Departure
| Time | 2026-04-26 11:30 |
|---|---|
| Airport | Sardar Vallabh Patel International Airport (VAAH) |
Arrival
| Time | 2026-04-26 12:16 |
|---|---|
| Airport | Chhatrapati Shivaji Maharaj International Airport (VABB) |
| Time | Latitude | Longitude | Altitude | Speed | Heading |
|---|---|---|---|---|---|
| 2026-04-26 11:10 | 23.07082 | 72.61952 | 220 ft | 0 kts | 8° |
| 2026-04-26 11:16 | 23.07076 | 72.61951 | 220 ft | 3 kts | 8° |
| 2026-04-26 11:16 | 23.07057 | 72.61948 | 197 ft | 3 kts | 8° |
| 2026-04-26 11:16 | 23.07039 | 72.61944 | 202 ft | 3 kts | 29° |
| 2026-04-26 11:17 | 23.07025 | 72.61931 | 207 ft | 3 kts | 68° |
| 2026-04-26 11:17 | 23.07022 | 72.61915 | 207 ft | 0 kts | 99° |
| 2026-04-26 11:21 | 23.07021 | 72.61921 | 207 ft | 2 kts | 99° |
| 2026-04-26 11:21 | 23.07016 | 72.61933 | 200 ft | 2 kts | 120° |
| 2026-04-26 11:21 | 23.07008 | 72.61948 | 204 ft | 3 kts | 117° |
| 2026-04-26 11:21 | 23.06993 | 72.62001 | 196 ft | 14 kts | 100° |
| 2026-04-26 11:22 | 23.06952 | 72.62109 | 200 ft | 16 kts | 134° |
| 2026-04-26 11:22 | 23.06873 | 72.62195 | 194 ft | 16 kts | 134° |
| 2026-04-26 11:22 | 23.06871 | 72.62288 | 197 ft | 13 kts | 46° |
| 2026-04-26 11:22 | 23.06961 | 72.62383 | 193 ft | 22 kts | 44° |
| 2026-04-26 11:23 | 23.07036 | 72.62464 | 202 ft | 0 kts | 46° |
| 2026-04-26 11:23 | 23.07038 | 72.62466 | 201 ft | 1 kts | 45° |
| 2026-04-26 11:23 | 23.07044 | 72.62473 | 197 ft | 3 kts | 45° |
| 2026-04-26 11:23 | 23.07102 | 72.62535 | 208 ft | 20 kts | 43° |
| 2026-04-26 11:24 | 23.07240 | 72.62682 | 198 ft | 35 kts | 44° |
| 2026-04-26 11:24 | 23.07429 | 72.62882 | 201 ft | 37 kts | 44° |
| 2026-04-26 11:24 | 23.07590 | 72.63053 | 202 ft | 31 kts | 44° |
| 2026-04-26 11:24 | 23.07675 | 72.63186 | 205 ft | 2 kts | 73° |
| 2026-04-26 11:25 | 23.07678 | 72.63198 | 206 ft | 2 kts | 73° |
| 2026-04-26 11:25 | 23.07681 | 72.63210 | 207 ft | 2 kts | 73° |
| 2026-04-26 11:25 | 23.07682 | 72.63212 | 206 ft | 0 kts | 73° |
| 2026-04-26 11:26 | 23.07683 | 72.63217 | 204 ft | 5 kts | 74° |
| 2026-04-26 11:27 | 23.07720 | 72.63367 | 199 ft | 33 kts | 76° |
| 2026-04-26 11:27 | 23.07841 | 72.63574 | 200 ft | 33 kts | 44° |
| 2026-04-26 11:27 | 23.08014 | 72.63759 | 206 ft | 39 kts | 45° |
| 2026-04-26 11:27 | 23.08231 | 72.63991 | 207 ft | 48 kts | 45° |
| 2026-04-26 11:28 | 23.08490 | 72.64264 | 209 ft | 55 kts | 44° |
| 2026-04-26 11:28 | 23.08735 | 72.64521 | 208 ft | 29 kts | 45° |
| 2026-04-26 11:28 | 23.08840 | 72.64616 | 205 ft | 9 kts | 76° |
| 2026-04-26 11:28 | 23.08795 | 72.64645 | 207 ft | 6 kts | 204° |
| 2026-04-26 11:29 | 23.08780 | 72.64595 | 200 ft | 18 kts | 252° |
| 2026-04-26 11:29 | 23.08628 | 72.64411 | 211 ft | 59 kts | 224° |
| 2026-04-26 11:29 | 23.08274 | 72.64036 | 208 ft | 108 kts | 224° |
| 2026-04-26 11:29 | 23.07613 | 72.63339 | 210 ft | 153 kts | 223° |
| 2026-04-26 11:30 | 23.06870 | 72.62542 | 665 ft | 151 kts | 228° |
| 2026-04-26 11:30 | 23.06377 | 72.61977 | 949 ft | 155 kts | 227° |
| 2026-04-26 11:30 | 23.05344 | 72.60841 | 1581 ft | 160 kts | 226° |
| 2026-04-26 11:30 | 23.04539 | 72.59973 | 2025 ft | 172 kts | 228° |
| 2026-04-26 11:31 | 23.03618 | 72.58982 | 2274 ft | 200 kts | 227° |
| 2026-04-26 11:31 | 23.02567 | 72.57862 | 2587 ft | 220 kts | 226° |
| 2026-04-26 11:31 | 23.01362 | 72.56670 | 2796 ft | 249 kts | 217° |
| 2026-04-26 11:31 | 22.99764 | 72.55779 | 3221 ft | 265 kts | 203° |
| 2026-04-26 11:32 | 22.98001 | 72.55144 | 3887 ft | 269 kts | 199° |
| 2026-04-26 11:32 | 22.96194 | 72.54572 | 4578 ft | 272 kts | 198° |
| 2026-04-26 11:32 | 22.94362 | 72.54017 | 5281 ft | 274 kts | 198° |
| 2026-04-26 11:32 | 22.92508 | 72.53463 | 5985 ft | 277 kts | 198° |
| 2026-04-26 11:33 | 22.90662 | 72.52913 | 6686 ft | 280 kts | 198° |
| 2026-04-26 11:33 | 22.88776 | 72.52355 | 7425 ft | 282 kts | 198° |
| 2026-04-26 11:33 | 22.86876 | 72.51792 | 8172 ft | 284 kts | 198° |
| 2026-04-26 11:33 | 22.84957 | 72.51223 | 8948 ft | 287 kts | 198° |
| 2026-04-26 11:34 | 22.83022 | 72.50650 | 9721 ft | 290 kts | 198° |
| 2026-04-26 11:34 | 22.81031 | 72.50060 | 10188 ft | 305 kts | 197° |
| 2026-04-26 11:34 | 22.78903 | 72.49428 | 10446 ft | 326 kts | 197° |
| 2026-04-26 11:34 | 22.76652 | 72.48761 | 10689 ft | 344 kts | 197° |
| 2026-04-26 11:35 | 22.74316 | 72.48071 | 10917 ft | 360 kts | 197° |
| 2026-04-26 11:35 | 22.71853 | 72.47344 | 11131 ft | 374 kts | 197° |
| 2026-04-26 11:35 | 22.69295 | 72.46589 | 11331 ft | 387 kts | 197° |
| 2026-04-26 11:35 | 22.67530 | 72.46069 | 11530 ft | 392 kts | 197° |
| 2026-04-26 11:36 | 22.64013 | 72.45033 | 12044 ft | 398 kts | 196° |
| 2026-04-26 11:36 | 22.61327 | 72.44241 | 12470 ft | 401 kts | 196° |
| 2026-04-26 11:36 | 22.58624 | 72.43445 | 12894 ft | 404 kts | 196° |
| 2026-04-26 11:36 | 22.55890 | 72.42640 | 13314 ft | 408 kts | 196° |
| 2026-04-26 11:37 | 22.53141 | 72.41831 | 13728 ft | 411 kts | 195° |
| 2026-04-26 11:37 | 22.50368 | 72.41014 | 14138 ft | 414 kts | 195° |
| 2026-04-26 11:37 | 22.47577 | 72.40193 | 14552 ft | 417 kts | 195° |
| 2026-04-26 11:37 | 22.44768 | 72.39367 | 14968 ft | 420 kts | 195° |
| 2026-04-26 11:38 | 22.41940 | 72.38535 | 15387 ft | 423 kts | 195° |
| 2026-04-26 11:38 | 22.39122 | 72.37707 | 15796 ft | 426 kts | 195° |
| 2026-04-26 11:38 | 22.36253 | 72.36864 | 16200 ft | 429 kts | 195° |
| 2026-04-26 11:38 | 22.33363 | 72.36015 | 16608 ft | 432 kts | 195° |
| 2026-04-26 11:39 | 22.30453 | 72.35161 | 17012 ft | 434 kts | 195° |
| 2026-04-26 11:39 | 22.27526 | 72.34302 | 17386 ft | 437 kts | 195° |
| 2026-04-26 11:39 | 22.24575 | 72.33436 | 17744 ft | 441 kts | 194° |
| 2026-04-26 11:39 | 22.21599 | 72.32564 | 18089 ft | 443 kts | 194° |
| 2026-04-26 11:40 | 22.18617 | 72.31690 | 18382 ft | 445 kts | 194° |
| 2026-04-26 11:40 | 22.15615 | 72.30811 | 18682 ft | 448 kts | 194° |
| 2026-04-26 11:40 | 22.13154 | 72.30091 | 18914 ft | 450 kts | 194° |
| 2026-04-26 11:40 | 22.10124 | 72.29204 | 19201 ft | 452 kts | 194° |
| 2026-04-26 11:41 | 22.07074 | 72.28311 | 19473 ft | 454 kts | 194° |
| 2026-04-26 11:42 | 21.85394 | 72.21979 | 21347 ft | 469 kts | 194° |
| 2026-04-26 11:43 | 21.82239 | 72.21060 | 21643 ft | 471 kts | 194° |
| 2026-04-26 11:43 | 21.79062 | 72.20175 | 21942 ft | 473 kts | 191° |
| 2026-04-26 11:43 | 21.75800 | 72.19666 | 22248 ft | 473 kts | 182° |
| 2026-04-26 11:43 | 21.72505 | 72.19778 | 22561 ft | 474 kts | 171° |
| 2026-04-26 11:44 | 21.69240 | 72.20367 | 22880 ft | 475 kts | 167° |
| 2026-04-26 11:44 | 21.66004 | 72.21139 | 23194 ft | 477 kts | 165° |
| 2026-04-26 11:44 | 21.62813 | 72.21992 | 23474 ft | 479 kts | 164° |
| 2026-04-26 11:44 | 21.59584 | 72.22888 | 23751 ft | 480 kts | 164° |
| 2026-04-26 11:45 | 21.56344 | 72.23786 | 24043 ft | 482 kts | 164° |
| 2026-04-26 11:45 | 21.53094 | 72.24673 | 24332 ft | 483 kts | 164° |
| 2026-04-26 11:45 | 21.49826 | 72.25549 | 24632 ft | 485 kts | 165° |
| 2026-04-26 11:45 | 21.46546 | 72.26415 | 24955 ft | 486 kts | 165° |
| 2026-04-26 11:46 | 21.43252 | 72.27277 | 25292 ft | 488 kts | 165° |
| 2026-04-26 11:46 | 21.39952 | 72.28136 | 25658 ft | 487 kts | 165° |
| 2026-04-26 11:46 | 21.36664 | 72.28990 | 26170 ft | 484 kts | 165° |
| 2026-04-26 11:46 | 21.33396 | 72.29837 | 26695 ft | 481 kts | 166° |
| 2026-04-26 11:47 | 21.30142 | 72.30680 | 27204 ft | 479 kts | 166° |
| 2026-04-26 11:47 | 21.26910 | 72.31519 | 27695 ft | 477 kts | 166° |
| 2026-04-26 11:47 | 21.24260 | 72.32208 | 28091 ft | 475 kts | 166° |
| 2026-04-26 11:47 | 21.21086 | 72.33032 | 28585 ft | 473 kts | 166° |
| 2026-04-26 11:48 | 21.17889 | 72.33862 | 29078 ft | 471 kts | 167° |
| 2026-04-26 11:48 | 21.14709 | 72.34688 | 29552 ft | 470 kts | 167° |
| 2026-04-26 11:48 | 21.11532 | 72.35513 | 29968 ft | 469 kts | 167° |
| 2026-04-26 11:48 | 21.08357 | 72.36336 | 30283 ft | 469 kts | 168° |
| 2026-04-26 11:49 | 21.05183 | 72.37158 | 30629 ft | 469 kts | 168° |
| 2026-04-26 11:49 | 21.02016 | 72.37979 | 31040 ft | 467 kts | 168° |
| 2026-04-26 11:49 | 20.99428 | 72.38649 | 31383 ft | 465 kts | 169° |
| 2026-04-26 11:49 | 20.96275 | 72.39466 | 31811 ft | 463 kts | 169° |
| 2026-04-26 11:50 | 20.93159 | 72.40271 | 32224 ft | 460 kts | 170° |
| 2026-04-26 11:50 | 20.90042 | 72.41071 | 32626 ft | 458 kts | 171° |
| 2026-04-26 11:50 | 20.86950 | 72.41864 | 33056 ft | 456 kts | 171° |
| 2026-04-26 11:50 | 20.83872 | 72.42653 | 33490 ft | 453 kts | 172° |
| 2026-04-26 11:51 | 20.80811 | 72.43437 | 33881 ft | 451 kts | 172° |
| 2026-04-26 11:51 | 20.77795 | 72.44209 | 34168 ft | 451 kts | 172° |
| 2026-04-26 11:51 | 20.74962 | 72.44920 | 34407 ft | 449 kts | 174° |
| 2026-04-26 11:51 | 20.72228 | 72.45274 | 34620 ft | 442 kts | 184° |
| 2026-04-26 11:52 | 20.69198 | 72.44933 | 34733 ft | 436 kts | 198° |
| 2026-04-26 11:52 | 20.67279 | 72.44312 | 34747 ft | 434 kts | 203° |
| 2026-04-26 11:52 | 20.60687 | 72.41629 | 34745 ft | 434 kts | 204° |
| 2026-04-26 11:53 | 20.54849 | 72.40063 | 34746 ft | 435 kts | 191° |
| 2026-04-26 11:54 | 20.45760 | 72.41256 | 34158 ft | 453 kts | 164° |
| 2026-04-26 11:54 | 20.42887 | 72.42731 | 33426 ft | 461 kts | 158° |
| 2026-04-26 11:54 | 20.40083 | 72.44405 | 32578 ft | 464 kts | 156° |
| 2026-04-26 11:54 | 20.37264 | 72.46115 | 31642 ft | 468 kts | 156° |
| 2026-04-26 11:55 | 20.34449 | 72.47811 | 30734 ft | 473 kts | 156° |
| 2026-04-26 11:55 | 20.31558 | 72.49539 | 29802 ft | 477 kts | 156° |
| 2026-04-26 11:55 | 20.28646 | 72.51270 | 28717 ft | 481 kts | 155° |
| 2026-04-26 11:55 | 20.25715 | 72.53008 | 27697 ft | 483 kts | 155° |
| 2026-04-26 11:56 | 20.23301 | 72.54437 | 26856 ft | 485 kts | 155° |
| 2026-04-26 11:56 | 20.20339 | 72.56188 | 25827 ft | 487 kts | 154° |
| 2026-04-26 11:56 | 20.17399 | 72.57924 | 24796 ft | 489 kts | 153° |
| 2026-04-26 11:56 | 20.14423 | 72.59680 | 23947 ft | 488 kts | 153° |
| 2026-04-26 11:57 | 20.11509 | 72.61402 | 23829 ft | 468 kts | 153° |
| 2026-04-26 11:57 | 20.08715 | 72.63053 | 23816 ft | 456 kts | 153° |
| 2026-04-26 11:57 | 20.05912 | 72.64704 | 23790 ft | 464 kts | 153° |
| 2026-04-26 11:57 | 20.03080 | 72.66370 | 23738 ft | 466 kts | 153° |
| 2026-04-26 11:58 | 20.00241 | 72.68040 | 23694 ft | 466 kts | 153° |
| 2026-04-26 11:58 | 19.97404 | 72.69710 | 23639 ft | 466 kts | 153° |
| 2026-04-26 11:58 | 19.94567 | 72.71379 | 23582 ft | 465 kts | 153° |
| 2026-04-26 11:58 | 19.91736 | 72.73043 | 23531 ft | 465 kts | 153° |
| 2026-04-26 11:59 | 19.88942 | 72.74685 | 23474 ft | 464 kts | 153° |
| 2026-04-26 11:59 | 19.86114 | 72.76346 | 23417 ft | 464 kts | 153° |
| 2026-04-26 11:59 | 19.83293 | 72.78003 | 23359 ft | 463 kts | 153° |
| 2026-04-26 11:59 | 19.80476 | 72.79657 | 23303 ft | 463 kts | 153° |
| 2026-04-26 12:00 | 19.77649 | 72.81315 | 23249 ft | 462 kts | 153° |
| 2026-04-26 12:00 | 19.75777 | 72.82414 | 23211 ft | 462 kts | 153° |
| 2026-04-26 12:00 | 19.72962 | 72.84065 | 23152 ft | 462 kts | 153° |
| 2026-04-26 12:00 | 19.70148 | 72.85714 | 23100 ft | 461 kts | 153° |
| 2026-04-26 12:01 | 19.67341 | 72.87359 | 23040 ft | 461 kts | 153° |
| 2026-04-26 12:01 | 19.64534 | 72.89002 | 22679 ft | 463 kts | 153° |
| 2026-04-26 12:01 | 19.61697 | 72.90662 | 21900 ft | 467 kts | 153° |
| 2026-04-26 12:01 | 19.58841 | 72.92332 | 20786 ft | 468 kts | 152° |
| 2026-04-26 12:02 | 19.55994 | 72.93997 | 19754 ft | 467 kts | 152° |
| 2026-04-26 12:02 | 19.53169 | 72.95649 | 18832 ft | 457 kts | 151° |
| 2026-04-26 12:02 | 19.50442 | 72.97242 | 17951 ft | 438 kts | 150° |
| 2026-04-26 12:02 | 19.47843 | 72.98760 | 17084 ft | 426 kts | 150° |
| 2026-04-26 12:03 | 19.45265 | 73.00268 | 16280 ft | 421 kts | 150° |
| 2026-04-26 12:03 | 19.42703 | 73.01764 | 15467 ft | 418 kts | 150° |
| 2026-04-26 12:03 | 19.40160 | 73.03249 | 14665 ft | 415 kts | 150° |
| 2026-04-26 12:03 | 19.37639 | 73.04719 | 13874 ft | 412 kts | 150° |
| 2026-04-26 12:04 | 19.35143 | 73.06174 | 13033 ft | 408 kts | 150° |
| 2026-04-26 12:04 | 19.32670 | 73.07618 | 12215 ft | 403 kts | 150° |
| 2026-04-26 12:04 | 19.30224 | 73.09043 | 11458 ft | 400 kts | 150° |
| 2026-04-26 12:04 | 19.27786 | 73.10466 | 10921 ft | 398 kts | 150° |
| 2026-04-26 12:05 | 19.25378 | 73.11870 | 10172 ft | 391 kts | 150° |
| 2026-04-26 12:05 | 19.23028 | 73.13245 | 9244 ft | 389 kts | 150° |
| 2026-04-26 12:05 | 19.20858 | 73.14880 | 8253 ft | 378 kts | 133° |
| 2026-04-26 12:05 | 19.19459 | 73.17159 | 7335 ft | 365 kts | 109° |
| 2026-04-26 12:06 | 19.19125 | 73.19695 | 7000 ft | 335 kts | 82° |
| 2026-04-26 12:06 | 19.19686 | 73.21969 | 6791 ft | 307 kts | 69° |
| 2026-04-26 12:06 | 19.20303 | 73.24049 | 6579 ft | 287 kts | 72° |
| 2026-04-26 12:06 | 19.20739 | 73.26052 | 6169 ft | 272 kts | 76° |
| 2026-04-26 12:07 | 19.20963 | 73.28043 | 5236 ft | 278 kts | 91° |
| 2026-04-26 12:07 | 19.20411 | 73.30031 | 4367 ft | 288 kts | 119° |
| 2026-04-26 12:07 | 19.19060 | 73.31559 | 3714 ft | 285 kts | 148° |
| 2026-04-26 12:07 | 19.17242 | 73.32224 | 3568 ft | 282 kts | 177° |
| 2026-04-26 12:08 | 19.15325 | 73.31943 | 3578 ft | 278 kts | 205° |
| 2026-04-26 12:08 | 19.13772 | 73.30809 | 3569 ft | 269 kts | 233° |
| 2026-04-26 12:08 | 19.12918 | 73.29093 | 3577 ft | 263 kts | 258° |
| 2026-04-26 12:08 | 19.12661 | 73.27182 | 3617 ft | 266 kts | 268° |
| 2026-04-26 12:09 | 19.12564 | 73.25177 | 4006 ft | 274 kts | 270° |
| 2026-04-26 12:09 | 19.12486 | 73.23175 | 4545 ft | 272 kts | 270° |
| 2026-04-26 12:09 | 19.12395 | 73.21173 | 5000 ft | 274 kts | 267° |
| 2026-04-26 12:09 | 19.12070 | 73.19177 | 5128 ft | 275 kts | 260° |
| 2026-04-26 12:10 | 19.11655 | 73.17244 | 5135 ft | 256 kts | 259° |
| 2026-04-26 12:10 | 19.11257 | 73.15532 | 5119 ft | 231 kts | 258° |
| 2026-04-26 12:10 | 19.10874 | 73.13913 | 5070 ft | 225 kts | 259° |
| 2026-04-26 12:10 | 19.10495 | 73.12309 | 4690 ft | 225 kts | 259° |
| 2026-04-26 12:11 | 19.10110 | 73.10692 | 4020 ft | 229 kts | 259° |
| 2026-04-26 12:11 | 19.09719 | 73.09054 | 3379 ft | 229 kts | 259° |
| 2026-04-26 12:11 | 19.09347 | 73.07467 | 2991 ft | 215 kts | 262° |
| 2026-04-26 12:11 | 19.09197 | 73.05990 | 2958 ft | 192 kts | 271° |
| 2026-04-26 12:12 | 19.09161 | 73.04584 | 2963 ft | 191 kts | 273° |
| 2026-04-26 12:12 | 19.09127 | 73.03198 | 2781 ft | 186 kts | 272° |
| 2026-04-26 12:12 | 19.09102 | 73.01866 | 2545 ft | 180 kts | 272° |
| 2026-04-26 12:12 | 19.09087 | 73.00985 | 2385 ft | 174 kts | 272° |
| 2026-04-26 12:13 | 19.09059 | 72.99369 | 2097 ft | 157 kts | 273° |
| 2026-04-26 12:13 | 19.09042 | 72.98261 | 1917 ft | 145 kts | 272° |
| 2026-04-26 12:13 | 19.09028 | 72.97213 | 1740 ft | 141 kts | 271° |
| 2026-04-26 12:13 | 19.09013 | 72.96178 | 1568 ft | 141 kts | 271° |
| 2026-04-26 12:14 | 19.08998 | 72.95142 | 1375 ft | 140 kts | 270° |
| 2026-04-26 12:14 | 19.08988 | 72.94108 | 1228 ft | 140 kts | 271° |
| 2026-04-26 12:14 | 19.08976 | 72.93079 | 1036 ft | 142 kts | 269° |
| 2026-04-26 12:14 | 19.08958 | 72.92057 | 858 ft | 136 kts | 271° |
| 2026-04-26 12:15 | 19.08942 | 72.91049 | 681 ft | 138 kts | 268° |
| 2026-04-26 12:15 | 19.08913 | 72.90027 | 531 ft | 135 kts | 271° |
| 2026-04-26 12:15 | 19.08907 | 72.89047 | 344 ft | 134 kts | 271° |
| 2026-04-26 12:15 | 19.08898 | 72.88054 | 158 ft | 135 kts | 269° |
| 2026-04-26 12:16 | 19.08878 | 72.87068 | 49 ft | 129 kts | 269° |
| 2026-04-26 12:16 | 19.08862 | 72.86201 | 33 ft | 104 kts | 269° |
| 2026-04-26 12:16 | 19.09008 | 72.85732 | 33 ft | 56 kts | 297° |
| 2026-04-26 12:16 | 19.09058 | 72.85607 | 33 ft | 14 kts | 332° |
| 2026-04-26 12:17 | 19.09099 | 72.85491 | 33 ft | 8 kts | 303° |
| 2026-04-26 12:17 | 19.09161 | 72.85485 | 35 ft | 5 kts | 358° |
| 2026-04-26 12:17 | 19.09162 | 72.85485 | 35 ft | 0 kts | 358° |